.
WxDataArchive / Data Records for 2006-05-08
2006-05-07 May 2006 2006-05-09

Data Records for Monday, 08 May 2006

Time	Temp	Chill	HIndex	Humid	Dewpt	 Wind 	HiWind	WindDir	Rain 	Barom 
-----	----	-----	------	-----	-----	------	------	-------	-----	----- 
00:00	46.1	46.1	46.1	68	36.1	0	0	---	0.00	29.981 
00:05	46.0	46.0	46.0	70	36.8	0	0	---	0.00	29.981 
00:10	45.8	45.8	45.8	71	36.9	0	0	---	0.00	29.981 
00:15	45.7	45.7	45.7	71	36.8	0	0	---	0.00	29.979 
00:20	45.5	45.5	45.5	73	37.4	0	0	---	0.00	29.979 
00:25	45.4	45.4	45.4	72	36.9	0	0	---	0.00	29.979 
00:30	45.2	45.2	45.2	72	36.7	0	0	---	0.00	29.979 
00:35	45.1	45.1	45.1	72	36.6	0	0	---	0.00	29.979 
00:40	44.9	44.9	44.9	72	36.4	0	0	---	0.00	29.979 
00:45	44.8	44.8	44.8	72	36.3	0	0	---	0.00	29.978 
00:50	44.5	44.5	44.5	73	36.4	0	0	---	0.00	29.978 
00:55	44.3	44.3	44.3	74	36.5	0	0	---	0.00	29.978 
01:00	44.2	44.2	44.2	74	36.4	0	0	---	0.00	29.979 
01:05	44.1	44.1	44.1	74	36.4	0	0	---	0.00	29.979 
01:10	43.8	43.8	43.8	75	36.4	0	0	---	0.00	29.979 
01:15	43.5	43.5	43.5	75	36.1	0	0	---	0.00	29.978 
01:20	43.2	43.2	43.2	76	36.2	0	0	---	0.00	29.978 
01:25	43.1	43.1	43.1	77	36.4	0	0	---	0.00	29.978 
01:30	43.1	43.1	43.1	77	36.4	0	0	---	0.00	29.984 
01:35	42.9	42.9	42.9	77	36.2	0	0	---	0.00	29.984 
01:40	42.8	42.8	42.8	77	36.1	0	0	---	0.00	29.984 
01:45	42.8	42.8	42.8	78	36.4	0	0	---	0.00	29.977 
01:50	42.6	42.6	42.6	78	36.2	0	0	---	0.00	29.977 
01:55	42.3	42.3	42.3	79	36.3	0	0	---	0.00	29.977 
02:00	42.2	42.2	42.2	79	36.2	0	0	---	0.00	29.975 
02:05	42.1	42.1	42.1	79	36.1	0	0	---	0.00	29.975 
02:10	41.9	41.9	41.9	80	36.2	0	0	---	0.00	29.975 
02:15	41.8	41.8	41.8	80	36.1	0	0	---	0.00	29.973 
02:20	41.6	41.6	41.6	81	36.2	0	0	---	0.00	29.973 
02:25	41.5	41.5	41.5	81	36.1	0	0	---	0.00	29.973 
02:30	41.3	41.3	41.3	81	35.9	0	0	---	0.00	29.974 
02:35	41.2	41.2	41.2	82	36.1	0	0	---	0.00	29.974 
02:40	41.1	41.1	41.1	82	36.0	0	0	---	0.00	29.974 
02:45	40.9	40.9	40.9	82	35.8	0	0	---	0.00	29.974 
02:50	40.8	40.8	40.8	83	36.0	0	0	---	0.00	29.974 
02:55	40.8	40.8	40.8	83	36.0	0	0	---	0.00	29.974 
03:00	40.6	40.6	40.6	83	35.8	0	0	---	0.00	29.972 
03:05	40.5	40.5	40.5	84	36.1	0	0	---	0.00	29.972 
03:10	40.3	40.3	40.3	84	35.9	0	0	---	0.00	29.972 
03:15	40.1	40.1	40.1	85	36.0	0	0	---	0.00	29.973 
03:20	40.1	40.1	40.1	86	36.3	0	0	---	0.00	29.973 
03:25	39.9	39.9	39.9	86	36.1	0	0	---	0.00	29.973 
03:30	39.6	39.6	39.6	86	35.8	0	0	---	0.00	29.974 
03:35	39.5	39.5	39.5	86	35.7	0	0	---	0.00	29.974 
03:40	39.5	39.5	39.5	87	36.0	0	0	---	0.00	29.974 
03:45	39.5	39.5	39.5	88	36.2	0	0	---	0.00	29.974 
03:50	39.5	39.5	39.5	88	36.2	0	0	---	0.00	29.974 
03:55	39.5	39.5	39.5	89	36.5	0	0	---	0.00	29.974 
04:00	39.3	39.3	39.3	89	36.3	0	0	---	0.00	29.976 
04:05	39.2	39.2	39.2	89	36.2	0	0	---	0.00	29.976 
04:10	39.1	39.1	39.1	89	36.1	0	0	---	0.00	29.976 
04:15	38.9	38.9	38.9	89	35.9	0	0	---	0.00	29.977 
04:20	38.9	38.9	38.9	90	36.2	0	0	---	0.00	29.977 
04:25	38.9	38.9	38.9	90	36.2	0	0	---	0.00	29.977 
04:30	39.1	39.1	39.1	91	36.7	0	0	---	0.00	29.978 
04:35	39.1	39.1	39.1	91	36.7	0	0	---	0.00	29.978 
04:40	38.9	38.9	38.9	91	36.5	0	0	---	0.00	29.978 
04:45	38.9	38.9	38.9	91	36.5	0	0	---	0.00	29.981 
04:50	38.8	38.8	38.8	91	36.4	0	0	---	0.00	29.981 
04:55	38.6	38.6	38.6	91	36.2	0	0	---	0.00	29.981 
05:00	38.6	38.6	38.6	91	36.2	0	0	---	0.00	29.981 
05:05	38.6	38.6	38.6	92	36.5	0	0	---	0.00	29.981 
05:10	38.6	38.6	38.6	92	36.5	0	0	---	0.00	29.981 
05:15	38.6	38.6	38.6	92	36.5	0	0	---	0.00	29.981 
05:20	38.6	38.6	38.6	92	36.5	0	0	---	0.00	29.981 
05:25	38.5	38.5	38.5	92	36.4	0	0	---	0.00	29.981 
05:30	38.5	38.5	38.5	92	36.4	0	0	---	0.00	29.981 
05:35	38.3	38.3	38.3	92	36.2	0	0	---	0.00	29.981 
05:40	38.0	38.0	38.0	92	35.9	0	0	---	0.00	29.981 
05:45	37.9	37.9	37.9	92	35.8	0	0	---	0.00	29.985 
05:50	37.8	37.8	37.8	92	35.7	0	0	---	0.00	29.985 
05:55	37.6	37.6	37.6	92	35.5	0	0	---	0.00	29.985 
06:00	37.5	37.5	37.5	92	35.4	0	0	---	0.00	29.989 
06:05	37.5	37.5	37.5	92	35.4	0	0	---	0.00	29.989 
06:10	37.3	37.3	37.3	92	35.2	0	0	---	0.00	29.989 
06:15	37.2	37.2	37.2	92	35.1	0	0	---	0.00	29.994 
06:20	37.0	37.0	37.0	92	34.9	0	0	---	0.00	29.994 
06:25	37.0	37.0	37.0	92	34.9	0	0	---	0.00	29.994 
06:30	36.9	36.9	36.9	92	34.8	0	0	---	0.00	29.993 
06:35	36.9	36.9	36.9	92	34.8	0	0	---	0.00	29.993 
06:40	36.9	36.9	36.9	92	34.8	0	0	---	0.00	29.993 
06:45	36.9	36.9	36.9	92	34.8	0	0	---	0.00	29.992 
06:50	37.0	37.0	37.0	92	34.9	0	0	---	0.00	29.992 
06:55	37.2	37.2	37.2	92	35.1	0	0	---	0.00	29.992 
07:00	37.2	37.2	37.2	92	35.1	0	0	---	0.00	29.995 
07:05	37.3	37.3	37.3	92	35.2	0	0	---	0.00	29.995 
07:10	37.3	37.3	37.3	92	35.2	0	0	---	0.00	29.995 
07:15	37.8	37.8	37.8	93	36.0	0	0	---	0.00	29.994 
07:20	38.3	38.3	38.3	93	36.5	0	0	---	0.00	29.994 
07:25	39.1	39.1	39.1	93	37.2	0	0	---	0.00	29.994 
07:30	39.6	39.6	39.6	93	37.7	0	0	---	0.00	29.996 
07:35	40.3	40.3	40.3	93	38.4	0	0	---	0.00	29.996 
07:40	41.1	41.1	41.1	92	39.0	0	0	---	0.00	29.996 
07:45	42.2	42.2	42.2	91	39.8	0	0	---	0.00	29.997 
07:50	43.9	43.9	43.9	86	40.0	0	0	---	0.00	29.997 
07:55	45.4	45.4	45.4	85	41.2	0	1	112	0.00	29.997 
08:00	47.4	47.4	47.4	64	35.8	1	2	112	0.00	29.998 
08:05	49.2	49.2	49.2	62	36.7	1	2	112	0.00	29.998 
08:10	50.4	50.4	50.4	60	37.0	1	2	112	0.00	29.998 
08:15	51.4	51.4	51.4	57	36.7	1	2	112	0.00	30.004 
08:20	52.3	52.3	52.3	60	38.8	0	2	112	0.00	30.004 
08:25	53.2	53.2	53.2	54	37.0	0	1	112	0.00	30.004 
08:30	53.9	53.9	53.9	53	37.2	0	1	112	0.00	30.005 
08:35	54.1	54.1	54.1	54	37.8	0	1	112	0.00	30.005 
08:40	54.5	54.5	54.5	57	39.6	0	2	112	0.00	30.005 
08:45	55.0	55.0	55.0	57	40.0	0	2	112	0.00	30.017 
08:50	56.2	56.2	56.2	54	39.8	0	2	112	0.00	30.017 
08:55	56.9	56.9	56.9	55	40.9	0	2	112	0.00	30.017 
09:00	57.6	57.6	57.6	55	41.6	0	2	112	0.00	30.011 
09:05	58.4	58.4	58.4	55	42.3	0	2	112	0.00	30.011 
09:10	59.2	59.2	59.2	56	43.5	0	2	112	0.00	30.011 
09:15	59.9	59.9	59.9	54	43.2	0	2	112	0.00	30.014 
09:20	60.4	60.4	60.4	53	43.2	1	3	112	0.00	30.014 
09:25	60.7	60.7	60.7	52	43.0	1	2	112	0.00	30.014 
09:30	60.5	60.5	60.5	52	42.8	2	5	112	0.00	30.007 
09:35	60.5	60.5	60.5	53	43.3	1	3	90	0.00	30.007 
09:40	61.0	61.0	61.0	54	44.2	1	3	112	0.00	30.007 
09:45	61.6	61.6	61.6	54	44.8	1	3	112	0.00	30.009 
09:50	62.0	62.0	62.0	52	44.2	2	5	112	0.00	30.009 
09:55	61.8	61.8	61.8	52	44.0	1	3	270	0.00	30.009 
10:00	62.1	62.1	62.1	50	43.2	1	3	248	0.00	30.008 
10:05	63.1	63.1	63.1	52	45.2	1	4	112	0.00	30.008 
10:10	63.2	63.2	63.2	51	44.8	1	3	270	0.00	30.008 
10:15	63.7	63.7	63.7	50	44.7	1	5	270	0.00	30.002 
10:20	64.3	64.3	64.3	47	43.6	1	3	112	0.00	30.002 
10:25	64.3	64.3	64.3	46	43.1	2	4	90	0.00	30.002 
10:30	64.5	64.5	64.5	47	43.8	1	3	90	0.00	29.990 
10:35	64.5	64.5	64.5	45	42.7	2	6	90	0.00	29.990 
10:40	64.8	64.8	64.8	47	44.1	1	2	90	0.00	29.990 
10:45	65.5	65.5	65.5	44	43.0	1	3	90	0.00	29.975 
10:50	65.6	65.6	65.6	42	41.9	2	6	112	0.00	29.975 
10:55	65.3	65.3	65.3	43	42.2	3	10	90	0.00	29.975 
11:00	65.0	65.0	65.0	45	43.1	3	5	90	0.00	29.982 
11:05	65.2	65.2	65.2	43	42.1	3	6	90	0.00	29.982 
11:10	65.6	65.6	65.6	36	37.9	2	4	112	0.00	29.982 
11:15	66.1	66.1	66.1	36	38.4	2	7	90	0.00	29.992 
11:20	66.8	66.8	66.8	34	37.5	2	5	90	0.00	29.992 
11:25	66.9	66.9	66.9	34	37.6	2	4	90	0.00	29.992 
11:30	67.3	67.3	67.3	36	39.4	2	7	112	0.00	30.003 
11:35	67.8	67.8	67.8	34	38.4	1	4	225	0.00	30.003 
11:40	68.6	68.6	68.6	35	39.8	1	5	112	0.00	30.003 
11:45	68.8	68.8	68.8	33	38.5	2	6	112	0.00	30.002 
11:50	68.4	68.4	68.4	32	37.4	3	7	90	0.00	30.002 
11:55	67.6	67.6	67.6	33	37.5	3	6	90	0.00	30.002 
12:00	67.9	67.9	67.9	34	38.5	2	5	90	0.00	30.001 
12:05	67.9	67.9	67.9	29	34.5	3	9	135	0.00	30.001 
12:10	68.3	68.3	68.3	28	33.9	2	4	90	0.00	30.001 
12:15	68.4	68.4	68.4	29	34.9	2	9	90	0.00	30.002 
12:20	68.3	68.3	68.3	27	33.0	4	8	90	0.00	30.002 
12:25	68.4	68.4	68.4	29	34.9	2	6	90	0.00	30.002 
12:30	68.4	68.4	68.4	25	31.2	3	7	90	0.00	30.002 
12:35	68.8	68.8	68.8	30	36.1	2	4	112	0.00	30.002 
12:40	69.3	69.3	69.3	25	32.0	2	5	90	0.00	30.002 
12:45	69.3	69.3	69.3	29	35.7	2	7	90	0.00	29.998 
12:50	69.3	69.3	69.3	29	35.7	2	6	248	0.00	29.998 
12:55	69.1	69.1	69.1	28	34.6	2	6	90	0.00	29.998 
13:00	69.1	69.1	69.1	31	37.2	3	9	90	0.00	29.994 
13:05	69.6	69.6	69.6	27	34.1	2	5	90	0.00	29.994 
13:10	69.6	69.6	69.6	31	37.6	2	9	112	0.00	29.994 
13:15	69.9	69.9	69.9	25	32.5	3	9	90	0.00	29.985 
13:20	69.4	69.4	69.4	25	32.0	4	12	90	0.00	29.985 
13:25	69.6	69.6	69.6	25	32.2	2	6	112	0.00	29.985 
13:30	69.4	69.4	69.4	26	33.0	2	9	112	0.00	29.984 
13:35	69.6	69.6	69.6	25	32.2	2	4	90	0.00	29.984 
13:40	69.8	69.8	69.8	25	32.4	3	7	90	0.00	29.984 
13:45	69.4	69.4	69.4	25	32.0	4	7	90	0.00	29.977 
13:50	69.3	69.3	69.3	28	34.8	3	9	90	0.00	29.977 
13:55	69.8	69.8	69.8	27	34.3	1	4	112	0.00	29.977 
14:00	70.3	70.3	70.3	28	35.6	2	5	90	0.00	29.969 
14:05	70.8	70.8	70.8	26	34.2	1	5	248	0.00	29.969 
14:10	71.3	71.3	71.3	27	35.6	2	9	90	0.00	29.969 
14:15	71.3	71.3	71.3	26	34.6	2	4	90	0.00	29.958 
14:20	70.9	70.9	70.9	24	32.3	2	6	90	0.00	29.958 
14:25	70.6	70.6	70.6	24	32.0	1	4	90	0.00	29.958 
14:30	70.4	70.4	70.4	25	32.9	3	5	90	0.00	29.956 
14:35	70.1	70.1	70.1	27	34.6	2	6	90	0.00	29.956 
14:40	70.8	70.8	70.8	27	35.2	2	5	90	0.00	29.956 
14:45	71.5	71.5	71.5	26	34.8	1	4	90	0.00	29.954 
14:50	71.6	71.6	71.6	24	32.9	2	6	270	0.00	29.954 
14:55	71.8	71.8	71.8	24	33.1	2	6	90	0.00	29.954 
15:00	71.6	71.6	71.6	29	37.6	2	7	112	0.00	29.944 
15:05	71.8	71.8	71.8	23	32.0	2	5	90	0.00	29.944 
15:10	71.1	71.1	71.1	24	32.5	2	5	90	0.00	29.944 
15:15	70.9	70.9	70.9	25	33.3	2	3	68	0.00	29.941 
15:20	70.9	70.9	70.9	24	32.3	2	4	90	0.00	29.941 
15:25	70.8	70.8	70.8	25	33.2	2	5	90	0.00	29.941 
15:30	71.1	71.1	71.1	26	34.5	2	6	90	0.00	29.941 
15:35	71.6	71.6	71.6	28	36.8	1	4	270	0.00	29.941 
15:40	72.0	72.0	72.0	23	32.2	1	5	248	0.00	29.941 
15:45	72.5	72.5	72.5	25	34.7	1	3	135	0.00	29.938 
15:50	73.0	73.0	73.0	27	37.0	1	4	68	0.00	29.938 
15:55	72.7	72.7	72.7	25	34.8	2	6	112	0.00	29.938 
16:00	72.5	72.5	72.5	22	31.5	2	5	248	0.00	29.929 
16:05	72.8	72.8	72.8	27	36.9	1	2	248	0.00	29.929 
16:10	73.2	73.2	73.2	24	34.2	2	4	90	0.00	29.929 
16:15	73.0	73.0	73.0	26	36.1	1	4	112	0.00	29.926 
16:20	72.8	72.8	72.8	25	34.9	2	6	270	0.00	29.926 
16:25	72.5	72.5	72.5	27	36.6	2	5	270	0.00	29.926 
16:30	72.8	72.8	72.8	29	38.7	1	4	90	0.00	29.923 
16:35	72.7	72.7	72.7	27	36.8	3	6	90	0.00	29.923 
16:40	72.7	72.7	72.7	27	36.8	1	3	112	0.00	29.923 
16:45	72.7	72.7	72.7	26	35.8	1	4	90	0.00	29.920 
16:50	72.5	72.5	72.5	27	36.6	1	5	90	0.00	29.920 
16:55	72.1	72.1	72.1	27	36.3	0	1	68	0.00	29.920 
17:00	72.7	72.7	72.7	26	35.8	1	4	68	0.00	29.912 
17:05	72.5	72.5	72.5	28	37.5	1	5	112	0.00	29.912 
17:10	72.7	72.7	72.7	26	35.8	0	2	112	0.00	29.912 
17:15	72.1	72.1	72.1	25	34.3	2	5	90	0.00	29.912 
17:20	72.1	72.1	72.1	28	37.2	1	5	248	0.00	29.912 
17:25	72.3	72.3	72.3	27	36.4	1	4	248	0.00	29.912 
17:30	72.5	72.5	72.5	28	37.5	1	4	90	0.00	29.910 
17:35	72.3	72.3	72.3	27	36.4	2	4	90	0.00	29.910 
17:40	72.1	72.1	72.1	28	37.2	1	5	112	0.00	29.910 
17:45	72.0	72.0	72.0	26	35.2	0	1	112	0.00	29.909 
17:50	72.0	72.0	72.0	30	38.9	1	3	112	0.00	29.909 
17:55	71.6	71.6	71.6	28	36.8	1	4	202	0.00	29.909 
18:00	71.5	71.5	71.5	29	37.6	1	2	248	0.00	29.908 
18:05	71.5	71.5	71.5	28	36.7	1	3	180	0.00	29.908 
18:10	71.5	71.5	71.5	30	38.4	1	3	180	0.00	29.908 
18:15	71.5	71.5	71.5	28	36.7	1	3	90	0.00	29.907 
18:20	71.3	71.3	71.3	27	35.6	1	3	112	0.00	29.907 
18:25	71.1	71.1	71.1	29	37.2	1	3	112	0.00	29.907 
18:30	71.1	71.1	71.1	30	38.1	2	5	112	0.00	29.907 
18:35	70.9	70.9	70.9	28	36.2	2	5	90	0.00	29.907 
18:40	70.9	70.9	70.9	31	38.7	1	4	225	0.00	29.907 
18:45	70.8	70.8	70.8	29	37.0	1	3	225	0.00	29.906 
18:50	70.8	70.8	70.8	30	37.8	0	2	248	0.00	29.906 
18:55	70.9	70.9	70.9	29	37.0	1	4	225	0.00	29.906 
19:00	70.9	70.9	70.9	29	37.0	1	3	248	0.00	29.904 
19:05	70.4	70.4	70.4	30	37.5	1	3	248	0.00	29.904 
19:10	70.4	70.4	70.4	29	36.6	0	1	248	0.00	29.904 
19:15	70.3	70.3	70.3	31	38.2	1	2	135	0.00	29.895 
19:20	70.1	70.1	70.1	30	37.2	1	4	112	0.00	29.895 
19:25	70.1	70.1	70.1	31	38.1	0	4	90	0.00	29.895 
19:30	69.9	69.9	69.9	33	39.5	0	1	90	0.00	29.896 
19:35	69.6	69.6	69.6	34	40.0	0	3	90	0.00	29.896 
19:40	69.3	69.3	69.3	35	40.5	0	3	270	0.00	29.896 
19:45	68.8	68.8	68.8	34	39.3	0	1	270	0.00	29.896 
19:50	68.4	68.4	68.4	34	38.9	0	3	90	0.00	29.896 
19:55	68.3	68.3	68.3	33	38.1	0	2	90	0.00	29.896 
20:00	68.3	68.3	68.3	35	39.6	0	1	90	0.00	29.902 
20:05	68.1	68.1	68.1	34	38.7	0	1	90	0.00	29.902 
20:10	67.9	67.9	67.9	35	39.2	0	1	90	0.00	29.902 
20:15	67.8	67.8	67.8	35	39.1	0	1	90	0.00	29.895 
20:20	67.6	67.6	67.6	37	40.4	0	0	---	0.00	29.895 
20:25	67.1	67.1	67.1	40	42.0	0	0	---	0.00	29.895 
20:30	66.6	66.6	66.6	40	41.5	0	0	---	0.00	29.898 
20:35	66.1	66.1	66.1	41	41.7	0	0	---	0.00	29.898 
20:40	65.5	65.5	65.5	41	41.2	0	0	---	0.00	29.898 
20:45	65.0	65.0	65.0	43	42.0	0	0	---	0.00	29.901 
20:50	64.3	64.3	64.3	43	41.3	0	0	---	0.00	29.901 
20:55	63.9	63.9	63.9	44	41.6	0	0	---	0.00	29.901 
21:00	63.2	63.2	63.2	45	41.5	0	0	---	0.00	29.903 
21:05	62.6	62.6	62.6	44	40.4	0	0	---	0.00	29.903 
21:10	62.0	62.0	62.0	46	41.0	0	0	---	0.00	29.903 
21:15	61.5	61.5	61.5	49	42.2	0	0	---	0.00	29.901 
21:20	61.0	61.0	61.0	50	42.2	0	0	---	0.00	29.901 
21:25	60.4	60.4	60.4	51	42.2	0	0	---	0.00	29.901 
21:30	59.9	59.9	59.9	52	42.2	0	0	---	0.00	29.904 
21:35	59.5	59.5	59.5	54	42.8	0	0	---	0.00	29.904 
21:40	59.2	59.2	59.2	54	42.6	0	0	---	0.00	29.904 
21:45	58.7	58.7	58.7	54	42.1	0	0	---	0.00	29.908 
21:50	58.1	58.1	58.1	56	42.5	0	0	---	0.00	29.908 
21:55	57.6	57.6	57.6	57	42.5	0	0	---	0.00	29.908 
22:00	57.2	57.2	57.2	58	42.6	0	0	---	0.00	29.912 
22:05	56.7	56.7	56.7	58	42.1	0	0	---	0.00	29.912 
22:10	56.5	56.5	56.5	58	41.9	0	0	---	0.00	29.912 
22:15	56.2	56.2	56.2	61	42.9	0	0	---	0.00	29.912 
22:20	55.9	55.9	55.9	62	43.1	0	0	---	0.00	29.912 
22:25	55.6	55.6	55.6	63	43.2	0	0	---	0.00	29.912 
22:30	55.3	55.3	55.3	63	42.9	0	0	---	0.00	29.916 
22:35	55.0	55.0	55.0	63	42.6	0	0	---	0.00	29.916 
22:40	54.7	54.7	54.7	64	42.8	0	0	---	0.00	29.916 
22:45	54.5	54.5	54.5	66	43.4	0	0	---	0.00	29.917 
22:50	54.2	54.2	54.2	67	43.5	0	0	---	0.00	29.917 
22:55	53.9	53.9	53.9	68	43.6	0	0	---	0.00	29.917 
23:00	53.6	53.6	53.6	68	43.3	0	0	---	0.00	29.916 
23:05	53.3	53.3	53.3	68	43.0	0	0	---	0.00	29.916 
23:10	53.2	53.2	53.2	69	43.3	0	0	---	0.00	29.916 
23:15	52.9	52.9	52.9	70	43.4	0	0	---	0.00	29.915 
23:20	52.8	52.8	52.8	71	43.7	0	0	---	0.00	29.915 
23:25	52.6	52.6	52.6	72	43.8	0	0	---	0.00	29.915 
23:30	52.5	52.5	52.5	73	44.1	0	0	---	0.00	29.912 
23:35	52.2	52.2	52.2	73	43.8	0	0	---	0.00	29.912 
23:40	52.0	52.0	52.0	74	44.0	0	0	---	0.00	29.912 
23:45	51.7	51.7	51.7	75	44.0	0	0	---	0.00	29.909 
23:50	51.6	51.6	51.6	76	44.3	0	0	---	0.00	29.909 
23:55	51.4	51.4	51.4	77	44.4	0	0	---	0.00	29.909 

CoCoRaHS
IN-AL-39
A2 Web Hosting
Creative Commons License
GoDaddy
Look for:

loaded 2017-10-16 20:14:22 • last modified 2010-11-18 10:43:29
Privacy PolicyDisclaimer
• wx.awcolley.com is powered by PmWiki v.2002016 •
• all content (unless otherwise noted) © 2017 A W Colley